• Join FlightAware (Why Join?)
  • Login
  • US Flag 
12:52AM EDT


 

Airport Tracker/Info


-or-


 

Live Flight TrackerFlight Track Log ✈ AWE3327 ✈ 11-May-2013 ✈ KDCA - KSRQ

Flight Track Log - Related Links

Times and Time Zones

All times are in EDT time to prevent confusion due to time zone crossing. See the AWE3327 flight status page for this flight to view local times or setup timezone preferences in your user account.

Time Position Orientation Groundspeed Altitude Reporting Facility
EDT Latitude Longitude Course Direction KTS MPH feet Rate Location/Type
09:16AM 38.8333 -77.0333 201° Southwest 158 182 1,000  Level Potomac TRACON
09:17AM 38.7833 -77.0333 180° South 204 235 2,500 1,800 Climbing Potomac TRACON
09:18AM 38.6301 -77.2865 218° Southwest  Level FlightAware Approximate
09:18AM 38.7333 -77.0667 207° Southwest 253 291 4,600  Level Potomac TRACON
09:19AM 38.5503 -77.3664 218° Southwest  Level FlightAware Approximate
09:19AM 38.7167 -77.1500 256° West 249 287 7,400  Level Potomac TRACON
09:20AM 38.4770 -77.4559 225° Southwest  Level FlightAware Approximate
09:20AM 38.7000 -77.2333 256° West 256 295 9,800  Level Potomac TRACON
09:21AM 38.4019 -77.5407 201° Southwest  Level FlightAware Approximate
09:21AM 38.6500 -77.3167 232° Southwest 279 321 11,600  Level Potomac TRACON
09:22AM 38.5958 -77.3633 214° Southwest 295 339 12,900 1,740 Climbing Washington Center
09:23AM 38.5303 -77.4308 219° Southwest 317 365 14,800 1,860 Climbing Washington Center
09:24AM 38.4625 -77.5008 219° Southwest 317 365 16,700 1,620 Climbing Washington Center
09:25AM 38.4031 -77.5628 219° Southwest 317 365 18,100 1,380 Climbing Washington Center
09:26AM 38.3411 -77.6486 227° Southwest 317 365 19,500 1,380 Climbing Washington Center
09:27AM 38.2750 -77.7314 225° Southwest 329 379 21,000 1,560 Climbing Washington Center
09:28AM 38.2031 -77.8033 218° Southwest 329 379 22,700 1,440 Climbing Washington Center
09:29AM 38.1328 -77.8778 220° Southwest 335 386 24,000 660 Climbing Washington Center
09:30AM 38.0603 -77.9519 219° Southwest 335 386 24,000  Level Washington Center
09:31AM 37.9817 -78.0314 219° Southwest 329 379 24,000  Level Washington Center
09:32AM 37.9092 -78.1078 220° Southwest 334 384 24,000  Level Washington Center
09:33AM 37.8386 -78.1872 222° Southwest 340 391 24,000  Level Washington Center
09:34AM 37.7619 -78.2633 218° Southwest 340 391 24,000  Level Washington Center
09:35AM 37.6892 -78.3394 220° Southwest 346 398 24,000  Level Washington Center
09:36AM 37.6208 -78.4078 218° Southwest 346 398 24,000  Level Washington Center
09:37AM 37.5483 -78.4811 219° Southwest 346 398 24,000  Level Washington Center
09:38AM 37.4756 -78.5542 219° Southwest 346 398 24,000  Level Washington Center
09:39AM 37.4006 -78.6297 219° Southwest 346 398 24,000  Level Washington Center
09:40AM 37.3300 -78.7025 219° Southwest 340 391 24,000  Level Washington Center
09:41AM 37.2483 -78.7853 219° Southwest 340 391 24,000  Level Washington Center
09:42AM 37.1778 -78.8556 218° Southwest 340 391 24,000  Level Washington Center
09:43AM 37.1047 -78.9278 218° Southwest 340 391 24,000  Level Washington Center
09:44AM 37.0319 -79.0003 219° Southwest 335 386 24,000  Level Washington Center
09:45AM 36.9672 -79.0700 221° Southwest 335 386 24,000  Level Washington Center
09:46AM 36.8942 -79.1422 218° Southwest 335 386 24,000  Level Washington Center
09:47AM 36.8189 -79.2139 217° Southwest 335 386 24,000  Level Washington Center
09:48AM 36.7458 -79.2856 218° Southwest 335 386 24,000  Level Washington Center
09:49AM 36.6725 -79.3597 219° Southwest 335 386 24,000  Level Washington Center
09:50AM 36.5906 -79.4439 220° Southwest 340 391 24,000  Level Washington Center
09:52AM 36.4264 -79.6008 218° Southwest 348 400 24,000  Level Atlanta Center
09:53AM 36.3578 -79.6664 218° Southwest 348 400 24,000  Level Atlanta Center
09:54AM 36.2833 -79.7425 220° Southwest 354 407 24,000  Level Atlanta Center
09:55AM 36.2047 -79.8189 218° Southwest 354 407 24,000  Level Atlanta Center
09:56AM 36.1300 -79.8922 218° Southwest 354 407 24,000  Level Atlanta Center
09:57AM 36.0431 -79.9711 216° Southwest 360 414 24,000  Level Atlanta Center
09:58AM 35.9528 -80.0217 204° Southwest 355 409 24,000  Level Atlanta Center
09:59AM 35.8606 -80.0697 203° Southwest 355 409 24,000  Level Atlanta Center
10:00AM 35.7703 -80.1128 201° Southwest 360 414 24,000  Level Atlanta Center
10:01AM 35.6861 -80.1550 202° Southwest 360 414 24,000  Level Atlanta Center
10:02AM 35.5936 -80.2028 203° Southwest 366 421 24,000  Level Atlanta Center
10:03AM 35.5011 -80.2506 203° Southwest 366 421 24,000  Level Atlanta Center
10:04AM 35.4006 -80.3036 203° Southwest 366 421 24,000  Level Atlanta Center
10:05AM 35.3081 -80.3486 202° Southwest 366 421 24,000  Level Atlanta Center
10:06AM 35.2156 -80.3958 203° Southwest 366 421 24,000  Level Atlanta Center
10:07AM 35.1250 -80.4403 202° Southwest 366 421 24,000  Level Atlanta Center
10:11AM 34.8003 -80.6044 203° Southwest 350 403 24,000  Level Jacksonville Center
10:12AM 34.7094 -80.6475 201° Southwest 343 395 24,000  Level Jacksonville Center
10:13AM 34.6139 -80.6828 197° South 350 403 24,000  Level Jacksonville Center
10:14AM 34.5144 -80.7206 197° South 376 433 24,000  Level Jacksonville Center
10:15AM 34.4169 -80.7506 194° South 346 398 24,000  Level Jacksonville Center
10:16AM 34.3217 -80.7856 197° South 361 415 24,000  Level Jacksonville Center
10:17AM 34.2303 -80.8131 194° South 351 404 24,000  Level Jacksonville Center
10:18AM 34.1308 -80.8456 195° South 346 398 24,000  Level Jacksonville Center
10:19AM 34.0331 -80.8778 195° South 362 417 24,000 -60 Level Jacksonville Center
10:20AM 33.9378 -80.9125 197° South 357 411 23,900  Descending Jacksonville Center
10:21AM 33.8381 -80.9472 196° South 357 411 24,000  Climbing Jacksonville Center
10:22AM 33.7425 -80.9794 196° South 362 417 24,000  Level Jacksonville Center
10:23AM 33.6408 -81.0139 196° South 362 417 24,000  Level Jacksonville Center
10:24AM 33.5433 -81.0461 195° South 367 422 24,000  Level Jacksonville Center
10:25AM 33.4436 -81.0781 195° South 367 422 24,000  Level Jacksonville Center
10:26AM 33.3439 -81.1122 196° South 367 422 24,000  Level Jacksonville Center
10:27AM 33.2461 -81.1442 195° South 372 428 24,000  Level Jacksonville Center
10:28AM 33.1444 -81.1783 196° South 372 428 24,000  Level Jacksonville Center
10:29AM 33.0447 -81.2100 195° South 378 435 24,000  Level Jacksonville Center
10:30AM 32.9469 -81.2439 196° South 378 435 24,000  Level Jacksonville Center
10:31AM 32.8453 -81.2781 196° South 378 435 24,000  Level Jacksonville Center
10:32AM 32.7453 -81.3094 195° South 378 435 24,000  Level Jacksonville Center
10:33AM 32.6331 -81.3458 195° South 378 435 24,000  Level Jacksonville Center
10:34AM 32.5333 -81.3797 196° South 379 436 24,000  Level Jacksonville Center
10:35AM 32.4439 -81.4081 195° South 379 436 24,000  Level Jacksonville Center
10:36AM 32.3317 -81.4444 195° South 379 436 24,000  Level Jacksonville Center
10:37AM 32.2400 -81.4753 196° South 379 436 24,000  Level Jacksonville Center
10:38AM 32.1278 -81.5089 194° South 379 436 24,000  Level Jacksonville Center
10:39AM 32.0258 -81.5422 195° South 378 435 24,000  Level Jacksonville Center
10:40AM 31.9342 -81.5731 196° South 378 435 24,000  Level Jacksonville Center
10:41AM 31.8239 -81.6064 194° South 384 442 24,000  Level Jacksonville Center
10:42AM 31.7303 -81.6369 196° South 379 436 24,000  Level Jacksonville Center
10:43AM 31.6200 -81.6728 195° South 379 436 24,000  Level Jacksonville Center
10:44AM 31.5178 -81.7033 194° South 385 443 24,000  Level Jacksonville Center
10:45AM 31.4283 -81.7311 195° South 379 436 24,000  Level Jacksonville Center
10:46AM 31.3139 -81.7692 196° South 384 442 24,000  Level Jacksonville Center
10:47AM 31.2139 -81.8019 196° South 373 429 24,000  Level Jacksonville Center
10:48AM 31.1119 -81.8369 196° South 380 437 24,000  Level Jacksonville Center
10:49AM 31.0119 -81.8672 195° South 380 437 24,000  Level Jacksonville Center
10:50AM 30.9100 -81.8975 194° South 380 437 24,000  Level Jacksonville Center
10:51AM 30.8100 -81.9300 196° South 380 437 24,000  Level Jacksonville Center
10:52AM 30.7078 -81.9622 195° South 380 437 24,000  Level Jacksonville Center
10:53AM 30.6058 -81.9922 194° South 380 437 24,000  Level Jacksonville Center
10:54AM 30.5161 -82.0172 193° South 372 428 24,000  Level Jacksonville Center
10:55AM 30.4119 -82.0494 195° South 372 428 24,000  Level Jacksonville Center
10:56AM 30.3100 -82.0817 195° South 378 435 24,000  Level Jacksonville Center
10:57AM 30.2078 -82.1139 195° South 378 435 24,000  Level Jacksonville Center
10:58AM 30.1036 -82.1458 195° South 378 435 24,000  Level Jacksonville Center
10:59AM 30.0014 -82.1803 196° South 383 441 24,000  Level Jacksonville Center
11:00AM 29.8972 -82.2122 195° South 383 441 24,000 -540 Level Jacksonville Center
11:01AM 29.7950 -82.2439 195° South 378 435 23,000 -1,020 Descending Jacksonville Center
11:02AM 29.6825 -82.2711 192° South 378 435 22,000 -1,080 Descending Jacksonville Center
11:03AM 29.5781 -82.2572 173° South 373 429 20,900 -1,080 Descending Jacksonville Center
11:04AM 29.4714 -82.2389 171° South 379 436 19,900 -1,020 Descending Jacksonville Center
11:05AM 29.3628 -82.2231 173° South 385 443 18,900 -1,020 Descending Jacksonville Center
11:06AM 29.2625 -82.2094 173° South 385 443 17,900 -900 Descending Jacksonville Center
11:07AM 29.1644 -82.1933 172° South 373 429 17,100 -900 Descending Jacksonville Center
11:08AM 29.0642 -82.1775 172° South 367 422 16,200 -900 Descending Jacksonville Center
11:09AM 28.9639 -82.1617 172° South 367 422 15,400 -900 Descending Jacksonville Center
11:10AM 28.8594 -82.1506 175° South 373 429 14,500 -960 Descending Jacksonville Center
11:12AM 28.6333 -82.1167 173° South 394 453 12,500 -1,020 Descending Tampa TRACON
11:13AM 28.5333 -82.1000 172° South 382 440 11,400 -780 Descending Tampa TRACON
11:14AM 28.4167 -82.0833 173° South 367 422 11,000 -240 Descending Tampa TRACON
11:15AM 28.3167 -82.0667 172° South 364 419 11,000  Level Tampa TRACON
11:16AM 28.2167 -82.0500 172° South 359 413 11,000  Level Tampa TRACON
11:17AM 28.1167 -82.0833 196° South 352 405 11,000 -240 Level Tampa TRACON
11:18AM 28.0333 -82.1167 199° South 342 394 10,600 -900 Descending Tampa TRACON
11:19AM 27.9667 -82.1500 204° Southwest 289 333 9,400 -1,500 Descending Tampa TRACON
11:20AM 27.8833 -82.1833 199° South 290 334 7,700 -1,680 Descending Tampa TRACON
11:21AM 27.8167 -82.2167 204° Southwest 274 315 6,100 -900 Descending Tampa TRACON
11:22AM 27.7500 -82.2500 204° Southwest 265 305 6,000 -60 Descending Tampa TRACON
11:23AM 27.7000 -82.3000 222° Southwest 228 262 6,000  Level Tampa TRACON
11:24AM 27.6667 -82.3500 233° Southwest 222 255 6,000 -360 Level Tampa TRACON
11:25AM 27.6500 -82.4167 254° West 219 252 5,400 -960 Descending Tampa TRACON
11:26AM 27.6333 -82.4833 254° West 221 254 4,100 -780 Descending Tampa TRACON
11:27AM 27.6000 -82.5333 233° Southwest 213 245 3,900 -600 Descending Tampa TRACON
11:28AM 27.5667 -82.5833 233° Southwest 191 220 3,000 -1,020 Descending Tampa TRACON
11:29AM 27.5333 -82.6333 233° Southwest 188 216 2,000 -600 Descending Tampa TRACON
11:30AM 27.5000 -82.6667 222° Southwest 186 214 2,000 -120 Level Tampa TRACON
11:31AM 27.4667 -82.6500 156° South 164 189 1,800 -240 Descending Tampa TRACON